createdAt,value
2018-12-23T00:06:41.400Z,11.36
2018-12-23T00:10:49.504Z,11.40
2018-12-23T00:14:53.585Z,11.41
2018-12-23T00:18:57.672Z,11.41
2018-12-23T00:23:01.757Z,11.40
2018-12-23T00:32:07.689Z,11.50
2018-12-23T00:36:25.696Z,11.53
2018-12-23T00:40:31.489Z,11.53
2018-12-23T00:44:49.273Z,11.49
2018-12-23T00:49:05.523Z,11.50
2018-12-23T00:53:21.676Z,11.53
2018-12-23T00:57:46.882Z,11.59
2018-12-23T01:02:04.701Z,11.59
2018-12-23T01:06:29.849Z,11.31
2018-12-23T01:10:45.924Z,11.54
2018-12-23T01:19:47.333Z,12.32
2018-12-23T01:24:05.582Z,12.21
2018-12-23T01:32:48.475Z,12.57
2018-12-23T01:36:54.303Z,14.20
2018-12-23T01:41:00.216Z,14.04
2018-12-23T01:45:07.451Z,13.73
2018-12-23T01:49:13.278Z,13.49
2018-12-23T01:53:20.717Z,13.27
2018-12-23T01:57:26.572Z,12.06
2018-12-23T02:01:32.424Z,10.94
2018-12-23T02:05:45.884Z,10.23
2018-12-23T02:09:45.957Z,9.97
2018-12-23T02:13:51.745Z,9.67
2018-12-23T02:17:57.553Z,9.49
2018-12-23T02:22:03.391Z,9.68
2018-12-23T02:26:09.213Z,10.65
2018-12-23T02:30:14.999Z,11.22
2018-12-23T02:34:20.808Z,10.97
2018-12-23T02:38:26.627Z,11.10
2018-12-23T02:42:32.495Z,10.75
2018-12-23T02:46:38.311Z,10.24
2018-12-23T02:50:44.090Z,9.86
2018-12-23T02:54:50.303Z,10.00
2018-12-23T02:58:56.211Z,10.08
2018-12-23T03:03:02.048Z,9.78
2018-12-23T03:07:07.849Z,9.58
2018-12-23T03:11:14.695Z,9.44
2018-12-23T03:15:20.514Z,9.24
2018-12-23T03:19:26.350Z,9.24
2018-12-23T03:23:32.154Z,9.24
2018-12-23T03:27:37.967Z,9.20
2018-12-23T03:31:43.759Z,9.30
2018-12-23T03:35:49.564Z,9.24
2018-12-23T03:39:55.361Z,9.25
2018-12-23T03:44:01.161Z,9.30
2018-12-23T03:48:06.956Z,9.29
2018-12-23T03:52:14.395Z,9.44
2018-12-23T03:56:20.197Z,9.26
2018-12-23T04:00:25.988Z,9.36
2018-12-23T04:04:31.791Z,9.22
2018-12-23T04:08:37.639Z,9.01
2018-12-23T04:12:43.459Z,8.97
2018-12-23T04:16:49.264Z,9.22
2018-12-23T04:20:55.143Z,9.14
2018-12-23T04:25:00.945Z,9.14
2018-12-23T04:29:06.733Z,8.93
2018-12-23T04:33:12.559Z,8.85
2018-12-23T04:37:18.406Z,8.79
2018-12-23T04:41:24.206Z,8.74
2018-12-23T04:45:29.990Z,8.79
2018-12-23T04:49:35.783Z,8.85
2018-12-23T04:53:41.595Z,8.90
2018-12-23T04:57:47.468Z,8.86
2018-12-23T05:01:56.516Z,8.96
2018-12-23T05:06:02.362Z,9.58
2018-12-23T05:10:08.177Z,9.56
2018-12-23T05:14:13.983Z,9.48
2018-12-23T05:18:19.798Z,9.56
2018-12-23T05:22:25.611Z,9.78
2018-12-23T05:26:31.460Z,9.97
2018-12-23T05:30:37.386Z,10.10
2018-12-23T05:34:43.194Z,10.26
2018-12-23T05:38:49.018Z,10.38
2018-12-23T05:42:54.873Z,10.34
2018-12-23T05:47:00.735Z,10.33
2018-12-23T05:51:06.565Z,10.26
2018-12-23T05:55:12.418Z,10.28
2018-12-23T05:59:18.306Z,10.44
2018-12-23T06:03:24.133Z,10.51
2018-12-23T06:07:29.971Z,10.60
2018-12-23T06:11:37.117Z,10.51
2018-12-23T06:15:42.965Z,10.38
2018-12-23T06:19:48.766Z,10.38
2018-12-23T06:23:54.656Z,10.32
2018-12-23T06:28:00.471Z,10.08
2018-12-23T06:32:06.424Z,9.88
2018-12-23T06:36:12.282Z,9.79
2018-12-23T06:40:18.180Z,9.76
2018-12-23T06:44:23.975Z,9.76
2018-12-23T06:48:29.827Z,9.71
2018-12-23T06:52:35.679Z,9.84
2018-12-23T06:56:41.591Z,10.01
2018-12-23T07:00:47.434Z,10.16
2018-12-23T07:04:53.356Z,10.31
2018-12-23T07:08:59.199Z,10.48
2018-12-23T07:13:05.160Z,10.53
2018-12-23T07:17:10.968Z,10.57
2018-12-23T07:21:16.839Z,10.55
2018-12-23T07:25:22.707Z,10.55
2018-12-23T07:29:28.524Z,10.56
2018-12-23T07:33:34.362Z,10.55
2018-12-23T07:37:40.191Z,10.55
2018-12-23T07:41:46.058Z,10.61
2018-12-23T07:45:55.156Z,10.38
2018-12-23T07:50:02.688Z,10.27
2018-12-23T07:54:08.674Z,10.23
2018-12-23T08:02:49.785Z,9.77
2018-12-23T08:06:55.620Z,9.75
2018-12-23T08:11:01.438Z,9.88
2018-12-23T08:15:07.261Z,9.93
2018-12-23T08:19:13.083Z,9.92
2018-12-23T08:23:18.879Z,9.96
2018-12-23T08:27:24.773Z,10.00
2018-12-23T08:31:30.642Z,10.00
2018-12-23T08:35:36.556Z,10.13
2018-12-23T08:39:42.377Z,10.19
2018-12-23T08:43:48.203Z,10.25
2018-12-23T08:47:54.015Z,10.29
2018-12-23T08:51:59.928Z,10.21
2018-12-23T08:56:05.824Z,10.32
2018-12-23T09:00:11.632Z,10.43
2018-12-23T09:04:17.428Z,10.66
2018-12-23T09:08:23.308Z,10.80
2018-12-23T09:12:29.125Z,10.87
2018-12-23T09:16:34.954Z,10.80
2018-12-23T09:20:40.785Z,11.05
2018-12-23T09:24:46.727Z,10.98
2018-12-23T09:28:55.578Z,10.99
2018-12-23T09:33:01.623Z,11.20
2018-12-23T09:37:49.721Z,11.22
2018-12-23T09:41:55.666Z,11.20
2018-12-23T09:46:50.500Z,11.26
2018-12-23T09:50:56.351Z,11.19
2018-12-23T09:55:51.728Z,11.14
2018-12-23T09:59:57.920Z,11.36
2018-12-23T10:04:49.316Z,11.33
2018-12-23T10:08:55.143Z,11.50
2018-12-23T10:13:49.785Z,11.31
2018-12-23T10:17:55.643Z,11.45
2018-12-23T10:26:52.251Z,11.64
2018-12-23T10:30:58.103Z,11.43
2018-12-23T10:35:49.753Z,11.58
2018-12-23T10:39:55.643Z,11.73
2018-12-23T10:44:50.216Z,11.94
2018-12-23T10:48:56.083Z,11.89
2018-12-23T10:53:07.771Z,11.60
2018-12-23T10:57:13.608Z,11.70
2018-12-23T11:01:51.060Z,11.69
2018-12-23T11:05:57.016Z,11.91
2018-12-23T11:10:02.842Z,11.96
2018-12-23T11:14:08.710Z,11.96
2018-12-23T11:22:53.242Z,12.09
2018-12-23T11:26:59.101Z,12.24
2018-12-23T11:31:05.065Z,11.89
2018-12-23T11:35:10.917Z,11.83
2018-12-23T11:39:16.778Z,11.88
2018-12-23T11:43:49.811Z,12.03
2018-12-23T11:47:55.644Z,11.87
2018-12-23T11:52:01.461Z,11.85
2018-12-23T11:56:07.370Z,11.79
2018-12-23T12:00:13.240Z,11.74
2018-12-23T12:09:23.049Z,11.75
2018-12-23T12:13:28.928Z,11.57
2018-12-23T12:17:34.794Z,11.61
2018-12-23T12:21:40.681Z,11.60
2018-12-23T12:25:46.621Z,11.69
2018-12-23T12:29:56.226Z,11.56
2018-12-23T12:34:03.394Z,11.48
2018-12-23T12:39:25.425Z,11.53
2018-12-23T12:42:30.839Z,11.78
2018-12-23T12:51:47.318Z,11.99
2018-12-23T12:55:58.063Z,12.00
2018-12-23T13:00:04.598Z,11.97
2018-12-23T13:04:10.419Z,12.09
2018-12-23T13:08:16.237Z,12.13
2018-12-23T13:12:22.024Z,12.15
2018-12-23T13:16:27.853Z,12.06
2018-12-23T13:20:33.699Z,11.89
2018-12-23T13:24:39.592Z,11.89
2018-12-23T13:28:45.430Z,11.93
2018-12-23T13:32:51.350Z,11.80
2018-12-23T13:36:57.137Z,11.75
2018-12-23T13:41:10.649Z,11.55
2018-12-23T13:45:50.127Z,11.69
2018-12-23T13:50:34.870Z,11.67
2018-12-23T13:55:01.071Z,11.79
2018-12-23T13:59:42.815Z,11.72
2018-12-23T14:04:22.886Z,11.64
2018-12-23T14:09:05.260Z,11.73
2018-12-23T14:13:12.075Z,11.68
2018-12-23T14:17:17.908Z,11.49
2018-12-23T14:21:23.765Z,11.17
2018-12-23T14:25:29.579Z,10.99
2018-12-23T14:29:35.461Z,10.92
2018-12-23T14:33:41.345Z,10.77
2018-12-23T14:37:47.107Z,10.69
2018-12-23T14:41:54.600Z,10.99
2018-12-23T14:46:00.572Z,10.76
2018-12-23T14:50:09.374Z,10.74
2018-12-23T14:54:18.050Z,10.68
2018-12-23T14:58:23.883Z,10.65
2018-12-23T15:02:29.707Z,10.42
2018-12-23T15:06:35.580Z,10.27
2018-12-23T15:10:41.459Z,10.08
2018-12-23T15:14:47.305Z,10.01
2018-12-23T15:18:53.087Z,10.15
2018-12-23T15:22:58.903Z,10.19
2018-12-23T15:35:59.732Z,9.94
2018-12-23T15:40:06.741Z,9.95
2018-12-23T15:49:01.651Z,9.92
2018-12-23T15:53:20.060Z,9.92
2018-12-23T16:02:21.634Z,10.05
2018-12-23T16:06:39.735Z,9.99
2018-12-23T16:11:04.864Z,9.85
2018-12-23T16:15:21.011Z,9.95
2018-12-23T16:19:46.182Z,10.00
2018-12-23T16:24:04.250Z,9.95
2018-12-23T16:28:29.415Z,10.04
2018-12-23T16:32:50.964Z,10.11
2018-12-23T16:36:56.777Z,10.24
2018-12-23T16:41:02.601Z,10.24
2018-12-23T16:45:08.419Z,10.32
2018-12-23T16:49:14.202Z,10.47
2018-12-23T16:53:20.076Z,10.48
2018-12-23T16:57:26.861Z,10.59
2018-12-23T17:01:32.679Z,10.64
2018-12-23T17:05:38.558Z,10.67
2018-12-23T17:09:44.507Z,10.78
2018-12-23T17:13:50.300Z,10.77
2018-12-23T17:17:56.103Z,10.88
2018-12-23T17:22:01.925Z,10.84
2018-12-23T17:26:07.726Z,10.90
2018-12-23T17:30:13.611Z,10.85
2018-12-23T17:34:19.421Z,10.88
2018-12-23T17:38:25.230Z,10.98
2018-12-23T17:42:31.050Z,10.93
2018-12-23T17:46:36.843Z,10.96
2018-12-23T17:50:42.630Z,11.03
2018-12-23T17:54:48.473Z,11.12
2018-12-23T17:59:49.842Z,11.11
2018-12-23T18:21:49.204Z,11.30
2018-12-23T18:25:55.090Z,11.38
2018-12-23T18:30:48.918Z,11.42
2018-12-23T18:34:54.722Z,11.48
2018-12-23T18:39:48.751Z,11.55
2018-12-23T18:43:54.599Z,11.56
2018-12-23T18:48:48.580Z,11.60
2018-12-23T18:52:54.464Z,11.56
2018-12-23T18:57:21.629Z,11.62
2018-12-23T19:01:27.502Z,11.63
2018-12-23T19:05:33.420Z,11.74
2018-12-23T19:09:39.960Z,11.78
2018-12-23T19:14:21.254Z,11.75
2018-12-23T19:18:55.698Z,11.75
2018-12-23T19:23:26.483Z,11.76
2018-12-23T19:27:51.497Z,11.84
2018-12-23T19:32:39.550Z,11.74
2018-12-23T19:37:04.859Z,11.74
2018-12-23T19:41:36.674Z,11.78
2018-12-23T19:46:16.023Z,11.93
2018-12-23T19:50:48.871Z,11.93
2018-12-23T19:55:17.472Z,12.01
2018-12-23T19:59:48.999Z,12.02
2018-12-23T20:04:05.703Z,12.01
2018-12-23T20:08:16.154Z,11.98
2018-12-23T20:12:44.587Z,11.90
2018-12-23T20:17:04.953Z,12.02
2018-12-23T20:21:24.135Z,12.00
2018-12-23T20:25:43.401Z,12.14
2018-12-23T20:30:11.812Z,12.04
2018-12-23T20:34:34.127Z,11.98
2018-12-23T20:39:05.835Z,12.12
2018-12-23T20:43:40.548Z,12.05
2018-12-23T20:48:19.046Z,12.11
2018-12-23T20:52:44.574Z,12.14
2018-12-23T20:57:20.492Z,12.17
2018-12-23T21:01:50.599Z,12.34
2018-12-23T21:06:27.921Z,12.41
2018-12-23T21:10:59.127Z,12.43
2018-12-23T21:15:28.038Z,12.51
2018-12-23T21:19:53.495Z,12.46
2018-12-23T21:24:27.819Z,12.47
2018-12-23T21:28:57.942Z,12.37
2018-12-23T21:33:10.928Z,12.35
2018-12-23T21:37:33.061Z,12.53
2018-12-23T21:41:46.146Z,12.52
2018-12-23T21:46:02.353Z,12.40
2018-12-23T21:50:24.528Z,12.34
2018-12-23T21:54:37.659Z,12.35
2018-12-23T21:59:19.759Z,12.37
2018-12-23T22:04:05.009Z,12.35
2018-12-23T22:08:38.048Z,12.22
2018-12-23T22:13:13.863Z,12.19
2018-12-23T22:17:21.334Z,12.19
2018-12-23T22:21:51.783Z,12.24
2018-12-23T22:25:57.612Z,12.32
2018-12-23T22:30:49.104Z,12.21
2018-12-23T22:34:54.953Z,12.13
2018-12-23T22:43:54.197Z,12.09
2018-12-23T22:48:00.050Z,12.12
2018-12-23T22:52:05.888Z,12.17
2018-12-23T22:56:11.723Z,12.17
2018-12-23T23:00:51.669Z,12.22
2018-12-23T23:04:57.733Z,12.20
2018-12-23T23:09:05.306Z,12.33
2018-12-23T23:13:18.509Z,12.36
2018-12-23T23:17:18.688Z,12.37
2018-12-23T23:21:24.496Z,12.46
2018-12-23T23:25:30.369Z,12.44
2018-12-23T23:29:51.251Z,12.41
2018-12-23T23:33:57.103Z,12.45
2018-12-23T23:38:02.920Z,12.47
2018-12-23T23:42:08.789Z,12.55
2018-12-23T23:46:14.694Z,12.63
2018-12-23T23:50:20.520Z,12.64
2018-12-23T23:54:26.363Z,12.58
2018-12-23T23:58:32.156Z,12.58
